Time;durP1;ratioP1;P1;durP2;ratioP2;P2;SDS_P1;SDS_P2;PMS_P1;PMS_P2;Temp;Humidity;BMP_temperature;BMP_pressure;BME280_temperature;BME280_humidity;BME280_pressure;Samples;Min_cycle;Max_cycle;Signal;HPM_P1;HPM_P2
2022/02/01 00:00:40;;;;;;;;;;;;;;;17.63;47.91;100869.78;2066085;28;20050;-70
2022/02/01 00:01:43;;;;;;;;;;;;;;;17.63;48.08;100881.56;2064382;28;19928;-70
2022/02/01 00:02:52;;;;;;;;;;;;;;;17.63;47.89;100875.25;2066941;28;19932;-70
2022/02/01 00:03:58;;;;;;;;;;;;;;;17.61;47.81;100883.53;2067539;28;19956;-68
2022/02/01 00:06:24;;;;;;;;;;;;;;;17.60;48.00;100886.41;2065966;28;20958;-68
2022/02/01 00:07:41;;;;;;;;;;;;;;;17.60;47.90;100886.41;2066013;28;20376;-69
2022/02/01 00:12:16;;;;;;;;;;;;;;;17.61;48.31;100888.13;2061008;28;19913;-68
2022/02/01 00:15:06;;;;;;;;;;;;;;;17.61;48.21;100888.13;2064920;28;19913;-68
2022/02/01 00:16:42;;;;;;;;;;;;;;;17.62;48.37;100889.88;2065869;28;20442;-69
2022/02/01 00:34:40;;;;;;;;;;;;;;;17.58;48.10;100892.81;2068085;28;20142;-69
2022/02/01 00:37:31;;;;;;;;;;;;;;;17.58;47.97;100890.09;2068527;28;19921;-68
2022/02/01 00:38:52;;;;;;;;;;;;;;;17.58;48.16;100881.06;2061531;28;20640;-69
2022/02/01 00:39:57;;;;;;;;;;;;;;;17.56;48.05;100875.75;2067263;28;20307;-69
2022/02/01 00:41:03;;;;;;;;;;;;;;;17.57;47.99;100882.91;2067235;28;19921;-69
2022/02/01 00:42:04;;;;;;;;;;;;;;;17.56;47.93;100877.59;2066906;28;19913;-69
2022/02/01 00:43:06;;;;;;;;;;;;;;;17.55;48.31;100882.16;2067787;28;20118;-69
2022/02/01 00:44:06;;;;;;;;;;;;;;;17.54;48.19;100872.25;2063330;28;19913;-69
2022/02/01 00:45:06;;;;;;;;;;;;;;;17.54;48.11;100861.38;2063336;28;19914;-69
2022/02/01 00:46:07;;;;;;;;;;;;;;;17.54;48.13;100866.81;2066996;28;19944;-69
2022/02/01 00:47:07;;;;;;;;;;;;;;;17.54;48.18;100866.81;2067299;28;19928;-68
2022/02/01 00:48:07;;;;;;;;;;;;;;;17.53;47.94;100862.34;2068257;28;19910;-69
2022/02/01 00:49:08;;;;;;;;;;;;;;;17.52;48.06;100857.88;2067547;28;20439;-68
2022/02/01 00:50:11;;;;;;;;;;;;;;;17.53;48.13;100850.56;2065044;28;19921;-68
2022/02/01 00:51:12;;;;;;;;;;;;;;;17.52;48.06;100852.44;2067583;28;20361;-68
2022/02/01 00:52:13;;;;;;;;;;;;;;;17.53;48.16;100856.88;2063319;28;19936;-68
2022/02/01 00:53:13;;;;;;;;;;;;;;;17.52;48.16;100846.97;2064422;28;19968;-68
2022/02/01 00:54:13;;;;;;;;;;;;;;;17.53;48.18;100854.16;2066372;28;19913;-68
2022/02/01 00:55:14;;;;;;;;;;;;;;;17.52;47.94;100855.16;2068806;28;20900;-69
2022/02/01 00:56:15;;;;;;;;;;;;;;;17.53;47.97;100859.59;2067902;28;20815;-68
2022/02/01 00:57:15;;;;;;;;;;;;;;;17.53;48.09;100848.69;2069216;28;20497;-68
2022/02/01 00:58:15;;;;;;;;;;;;;;;17.53;47.94;100851.44;2061443;28;20039;-68
2022/02/01 00:59:16;;;;;;;;;;;;;;;17.53;47.97;100845.97;2067554;28;20727;-68
2022/02/01 01:00:16;;;;;;;;;;;;;;;17.53;48.12;100851.44;2064138;28;20780;-69
2022/02/01 01:01:17;;;;;;;;;;;;;;;17.54;47.83;100855.91;2067681;28;19917;-69
2022/02/01 01:02:17;;;;;;;;;;;;;;;17.53;48.07;100854.16;2067401;28;19956;-67
2022/02/01 01:03:17;;;;;;;;;;;;;;;17.52;48.18;100857.88;2064732;28;19917;-69
2022/02/01 01:04:18;;;;;;;;;;;;;;;17.52;48.11;100863.34;2067519;28;19925;-68
2022/02/01 01:05:18;;;;;;;;;;;;;;;17.52;47.87;100859.75;2067999;28;19917;-68
2022/02/01 01:06:19;;;;;;;;;;;;;;;17.52;47.89;100857.88;2066323;28;20122;-68
2022/02/01 01:07:20;;;;;;;;;;;;;;;17.52;48.08;100863.34;2067474;28;20681;-69
2022/02/01 01:08:20;;;;;;;;;;;;;;;17.51;47.85;100861.59;2066656;28;20302;-69
2022/02/01 01:09:20;;;;;;;;;;;;;;;17.51;48.19;100864.31;2067508;28;20907;-69
2022/02/01 01:10:21;;;;;;;;;;;;;;;17.50;47.84;100865.31;2067349;28;20337;-69
2022/02/01 01:11:21;;;;;;;;;;;;;;;17.50;48.14;100868.03;2064268;28;20291;-69
2022/02/01 01:12:23;;;;;;;;;;;;;;;17.50;48.14;100865.31;2067668;28;20471;-68
2022/02/01 01:14:51;;;;;;;;;;;;;;;17.49;48.08;100874.50;2067486;28;20384;-68
2022/02/01 01:16:00;;;;;;;;;;;;;;;17.50;48.19;100867.19;2064200;28;19921;-69
2022/02/01 01:44:46;;;;;;;;;;;;;;;17.69;47.75;100897.44;2065971;28;19921;-68
2022/02/01 01:53:33;;;;;;;;;;;;;;;17.80;47.60;100888.44;2061827;28;19921;-69
2022/02/01 01:54:34;;;;;;;;;;;;;;;17.80;47.29;100891.16;2065744;28;19909;-69
2022/02/01 01:55:35;;;;;;;;;;;;;;;17.81;47.31;100887.47;2067707;28;20003;-69
2022/02/01 01:56:36;;;;;;;;;;;;;;;17.82;47.53;100893.78;2066836;28;20027;-69
2022/02/01 01:57:37;;;;;;;;;;;;;;;17.82;47.28;100891.91;2066901;28;19913;-68
2022/02/01 01:58:37;;;;;;;;;;;;;;;17.84;47.28;100891.81;2067367;28;19909;-69
2022/02/01 01:59:37;;;;;;;;;;;;;;;17.84;47.28;100895.38;2065733;28;19909;-69
2022/02/01 02:01:42;;;;;;;;;;;;;;;17.85;47.20;100894.38;2059376;28;19918;-70
2022/02/01 02:02:42;;;;;;;;;;;;;;;17.85;47.11;100891.66;2067527;28;19917;-69
2022/02/01 02:03:46;;;;;;;;;;;;;;;17.84;47.04;100895.38;2062698;28;20347;-69
2022/02/01 02:04:47;;;;;;;;;;;;;;;17.85;47.17;100899.84;2065787;28;19917;-69
2022/02/01 02:05:47;;;;;;;;;;;;;;;17.85;47.13;100902.56;2067875;28;20683;-69
2022/02/01 02:06:48;;;;;;;;;;;;;;;17.85;47.19;100908.03;2066002;28;20279;-69
2022/02/01 02:07:50;;;;;;;;;;;;;;;17.83;47.20;100904.53;2067900;28;19917;-69
2022/02/01 02:08:53;;;;;;;;;;;;;;;17.82;47.15;100907.41;2066598;28;19924;-69
2022/02/01 02:09:53;;;;;;;;;;;;;;;17.82;47.51;100902.81;2066822;28;20546;-69
2022/02/01 02:11:01;;;;;;;;;;;;;;;17.81;47.44;100905.66;2066200;28;20347;-69
2022/02/01 02:14:56;;;;;;;;;;;;;;;17.79;47.13;100911.22;2067431;28;19913;-68
2022/02/01 02:16:01;;;;;;;;;;;;;;;17.78;47.50;100909.47;2067344;28;19921;-68
2022/02/01 02:17:02;;;;;;;;;;;;;;;17.77;47.16;100905.88;2065240;28;19933;-69
2022/02/01 02:18:03;;;;;;;;;;;;;;;17.78;47.34;100906.75;2065787;28;19940;-68
2022/02/01 02:19:04;;;;;;;;;;;;;;;17.77;47.17;100900.44;2065509;28;19928;-68
2022/02/01 02:20:04;;;;;;;;;;;;;;;17.78;47.29;100912.19;2066930;28;20726;-68
2022/02/01 02:21:05;;;;;;;;;;;;;;;17.78;47.25;100893.09;2066363;28;19913;-69
2022/02/01 02:22:07;;;;;;;;;;;;;;;17.77;47.44;100899.56;2065480;28;20579;-69
2022/02/01 02:23:08;;;;;;;;;;;;;;;17.76;47.17;100903.25;2066228;28;19995;-68
2022/02/01 02:24:09;;;;;;;;;;;;;;;17.77;47.18;100900.44;2065968;28;19968;-68
2022/02/01 02:25:09;;;;;;;;;;;;;;;17.78;47.26;100907.63;2064517;28;19996;-68
2022/02/01 02:26:16;;;;;;;;;;;;;;;17.79;47.21;100903.03;2063604;28;20040;-71
2022/02/01 02:27:18;;;;;;;;;;;;;;;17.79;47.28;100905.78;2065007;28;19921;-68
2022/02/01 02:28:19;;;;;;;;;;;;;;;17.80;47.28;100904.78;2065667;28;19955;-68
2022/02/01 02:29:20;;;;;;;;;;;;;;;17.81;47.14;100901.09;2067505;28;19925;-68
2022/02/01 02:30:20;;;;;;;;;;;;;;;17.81;47.11;100903.81;2066684;28;19925;-68
2022/02/01 02:31:21;;;;;;;;;;;;;;;17.81;47.13;100901.09;2065083;28;20410;-68
2022/02/01 02:32:21;;;;;;;;;;;;;;;17.81;47.27;100895.66;2068607;28;20363;-68
2022/02/01 02:33:21;;;;;;;;;;;;;;;17.82;47.15;100891.91;2066697;28;20504;-68
2022/02/01 02:34:22;;;;;;;;;;;;;;;17.82;47.35;100897.38;2066117;28;20173;-69
2022/02/01 02:35:22;;;;;;;;;;;;;;;17.82;47.20;100899.22;2066879;28;20376;-69
2022/02/01 02:36:23;;;;;;;;;;;;;;;17.80;47.21;100899.34;2064956;28;20367;-69
2022/02/01 02:37:29;;;;;;;;;;;;;;;17.79;47.44;100898.44;2067172;28;19997;-69
2022/02/01 02:39:24;;;;;;;;;;;;;;;17.79;47.25;100898.44;2065301;28;19944;-69
2022/02/01 02:40:16;;;;;;;;;;;;;;;17.78;47.22;100901.28;2062473;28;19933;-68
2022/02/01 02:45:03;;;;;;;;;;;;;;;17.78;47.25;100901.28;2063831;28;19999;-69
2022/02/01 02:45:09;;;;;;;;;;;;;;;17.77;47.23;100900.44;2065343;28;19925;-69
2022/02/01 02:46:10;;;;;;;;;;;;;;;17.77;47.42;100900.44;2066466;28;19953;-69
2022/02/01 02:47:10;;;;;;;;;;;;;;;17.76;47.18;100903.25;2062439;28;19979;-68
2022/02/01 02:48:12;;;;;;;;;;;;;;;17.77;47.22;100902.28;2067814;28;19917;-69
2022/02/01 02:49:14;;;;;;;;;;;;;;;17.77;47.14;100899.56;2066480;28;20012;-69
2022/02/01 02:50:15;;;;;;;;;;;;;;;17.77;47.11;100899.56;2067309;28;19925;-69
2022/02/01 02:51:15;;;;;;;;;;;;;;;17.76;47.20;100898.69;2065203;28;19921;-68
2022/02/01 02:52:16;;;;;;;;;;;;;;;17.78;47.13;100901.28;2064339;28;20019;-68
2022/02/01 02:53:16;;;;;;;;;;;;;;;17.78;47.32;100906.75;2066817;28;20384;-68
2022/02/01 02:54:18;;;;;;;;;;;;;;;17.78;47.12;100895.84;2066745;28;20137;-69
2022/02/01 02:55:19;;;;;;;;;;;;;;;17.78;47.16;100898.56;2066393;28;20328;-69
2022/02/01 02:56:19;;;;;;;;;;;;;;;17.79;47.24;100900.31;2065529;28;19935;-68
2022/02/01 02:57:19;;;;;;;;;;;;;;;17.80;47.37;100904.78;2069369;28;20384;-68
2022/02/01 02:58:19;;;;;;;;;;;;;;;17.82;47.17;100907.41;2063918;28;20071;-69
2022/02/01 02:59:21;;;;;;;;;;;;;;;17.81;47.12;100912.00;2068146;28;19909;-68
2022/02/01 03:00:21;;;;;;;;;;;;;;;17.81;47.17;100909.28;2061940;28;19932;-68
2022/02/01 03:01:21;;;;;;;;;;;;;;;17.82;47.43;100912.88;2064245;28;19917;-68
2022/02/01 03:02:22;;;;;;;;;;;;;;;17.82;47.31;100913.72;2061649;28;19921;-69
2022/02/01 03:03:24;;;;;;;;;;;;;;;17.81;47.21;100911.13;2065164;28;19921;-69
2022/02/01 03:04:27;;;;;;;;;;;;;;;17.82;47.35;100905.56;2066678;28;20721;-69
2022/02/01 03:05:28;;;;;;;;;;;;;;;17.84;47.00;100916.34;2062008;28;19913;-69
2022/02/01 03:06:28;;;;;;;;;;;;;;;17.82;47.02;100913.72;2062066;28;19921;-69
2022/02/01 03:07:28;;;;;;;;;;;;;;;17.82;46.97;100908.28;2064075;28;19966;-69
2022/02/01 03:08:29;;;;;;;;;;;;;;;17.83;47.29;100911.88;2067273;28;19967;-69
2022/02/01 03:09:30;;;;;;;;;;;;;;;17.81;46.96;100909.28;2064519;28;19913;-69
2022/02/01 03:10:30;;;;;;;;;;;;;;;17.81;47.37;100906.56;2068529;28;20487;-69
2022/02/01 03:11:31;;;;;;;;;;;;;;;17.83;47.34;100909.13;2062941;28;20300;-69
2022/02/01 03:12:55;;;;;;;;;;;;;;;17.81;47.16;100906.56;2061574;28;20310;-69
2022/02/01 03:13:56;;;;;;;;;;;;;;;17.82;47.18;100901.97;2064827;28;20002;-69
2022/02/01 03:15:10;;;;;;;;;;;;;;;17.81;47.20;100906.56;2066332;28;19920;-69
2022/02/01 03:16:30;;;;;;;;;;;;;;;17.81;47.20;100912.00;2066995;28;20214;-69
2022/02/01 03:20:24;;;;;;;;;;;;;;;17.81;47.19;100916.56;2040800;28;19945;-68
2022/02/01 03:21:25;;;;;;;;;;;;;;;17.79;47.19;100914.81;2051341;28;20684;-68
2022/02/01 03:22:26;;;;;;;;;;;;;;;17.79;47.17;100919.41;2067167;28;20349;-69
2022/02/01 03:23:27;;;;;;;;;;;;;;;17.78;47.17;100906.75;2064693;28;19925;-68
2022/02/01 03:24:27;;;;;;;;;;;;;;;17.79;47.25;100913.94;2066809;28;19917;-68
2022/02/01 03:25:28;;;;;;;;;;;;;;;17.78;47.34;100902.19;2067834;28;20302;-68
2022/02/01 03:26:29;;;;;;;;;;;;;;;17.77;47.33;100915.94;2066883;28;19960;-68
2022/02/01 03:27:29;;;;;;;;;;;;;;;17.78;47.29;100915.81;2065242;28;19955;-69
2022/02/01 03:28:30;;;;;;;;;;;;;;;17.78;47.26;100918.53;2067421;28;19917;-69
2022/02/01 03:29:31;;;;;;;;;;;;;;;17.79;47.22;100913.94;2064831;28;19928;-68
2022/02/01 03:30:31;;;;;;;;;;;;;;;17.79;47.23;100913.94;2067263;28;19967;-69
2022/02/01 03:31:31;;;;;;;;;;;;;;;17.78;47.20;100917.66;2064561;28;19971;-68
2022/02/01 03:32:32;;;;;;;;;;;;;;;17.79;47.14;100913.94;2063646;28;20546;-68
2022/02/01 03:33:32;;;;;;;;;;;;;;;17.78;47.10;100923.09;2065650;28;19975;-68
2022/02/01 03:34:32;;;;;;;;;;;;;;;17.78;47.18;100918.53;2066006;28;19921;-69
2022/02/01 03:35:33;;;;;;;;;;;;;;;17.79;47.34;100927.59;2068255;28;19921;-69
2022/02/01 03:36:33;;;;;;;;;;;;;;;17.78;47.14;100923.09;2063884;28;19983;-68
2022/02/01 03:37:33;;;;;;;;;;;;;;;17.78;47.09;100925.84;2067332;28;20662;-69
2022/02/01 03:38:34;;;;;;;;;;;;;;;17.76;47.24;100927.81;2065397;28;19940;-68
2022/02/01 03:39:35;;;;;;;;;;;;;;;17.75;47.08;100931.53;2063819;28;20058;-68
2022/02/01 03:40:35;;;;;;;;;;;;;;;17.73;47.01;100923.47;2067047;28;19921;-68
2022/02/01 03:41:35;;;;;;;;;;;;;;;17.73;47.38;100920.75;2067505;28;19921;-69
2022/02/01 03:42:36;;;;;;;;;;;;;;;17.73;47.28;100926.19;2064778;28;19923;-68
2022/02/01 03:43:36;;;;;;;;;;;;;;;17.71;47.15;100921.84;2065708;28;19943;-68
2022/02/01 03:44:37;;;;;;;;;;;;;;;17.71;47.49;100928.19;2067174;28;20375;-69
2022/02/01 03:45:37;;;;;;;;;;;;;;;17.71;47.23;100927.31;2064050;28;19921;-68
2022/02/01 03:46:39;;;;;;;;;;;;;;;17.71;47.37;100930.03;2060926;28;19921;-68
2022/02/01 03:47:40;;;;;;;;;;;;;;;17.69;47.30;100927.44;2066948;28;19960;-69
2022/02/01 03:48:40;;;;;;;;;;;;;;;17.69;47.47;100929.31;2060034;28;19952;-68
2022/02/01 03:49:42;;;;;;;;;;;;;;;17.69;47.23;100934.75;2062783;28;19921;-69
2022/02/01 03:50:43;;;;;;;;;;;;;;;17.68;47.37;100933.00;2067109;28;20319;-68
2022/02/01 03:51:43;;;;;;;;;;;;;;;17.67;47.41;100936.72;2061540;28;19999;-68
2022/02/01 03:52:44;;;;;;;;;;;;;;;17.67;47.32;100937.59;2063625;28;20028;-68
2022/02/01 03:53:44;;;;;;;;;;;;;;;17.67;47.48;100942.19;2066656;28;19975;-68
2022/02/01 03:54:44;;;;;;;;;;;;;;;17.67;47.48;100944.91;2063913;28;19925;-68
2022/02/01 03:55:44;;;;;;;;;;;;;;;17.68;47.30;100949.38;2065138;28;19929;-68
2022/02/01 03:56:45;;;;;;;;;;;;;;;17.69;47.36;100951.13;2061413;28;20007;-68
2022/02/01 03:57:45;;;;;;;;;;;;;;;17.70;47.31;100952.84;2063416;28;19921;-68
2022/02/01 03:58:45;;;;;;;;;;;;;;;17.69;47.21;100962.88;2064709;28;20028;-68
2022/02/01 03:59:46;;;;;;;;;;;;;;;17.69;47.49;100953.84;2065653;28;19972;-68
2022/02/01 04:00:46;;;;;;;;;;;;;;;17.69;47.46;100962.03;2067337;28;20280;-68
2022/02/01 04:01:46;;;;;;;;;;;;;;;17.68;47.46;100960.28;2065544;28;19921;-69
2022/02/01 04:02:47;;;;;;;;;;;;;;;17.68;47.37;100968.44;2065656;28;19917;-69
2022/02/01 04:03:47;;;;;;;;;;;;;;;17.66;47.17;100965.84;2069001;28;19920;-68
2022/02/01 04:04:53;;;;;;;;;;;;;;;17.66;47.24;100965.84;2063672;28;20037;-69
2022/02/01 04:05:53;;;;;;;;;;;;;;;17.67;47.35;100969.47;2065165;28;19935;-68
2022/02/01 04:06:53;;;;;;;;;;;;;;;17.66;47.40;100970.41;2066242;28;19924;-68
2022/02/01 04:07:54;;;;;;;;;;;;;;;17.66;47.25;100970.41;2067572;28;19920;-68
2022/02/01 04:08:54;;;;;;;;;;;;;;;17.66;47.33;100973.16;2069676;28;20055;-69
2022/02/01 04:09:54;;;;;;;;;;;;;;;17.65;47.36;100976.88;2061956;28;20402;-69
2022/02/01 04:10:55;;;;;;;;;;;;;;;17.65;47.34;100971.44;2065088;28;20098;-70
2022/02/01 04:11:57;;;;;;;;;;;;;;;17.64;47.45;100980.56;2069056;28;19921;-70
2022/02/01 04:12:58;;;;;;;;;;;;;;;17.64;47.34;100977.84;2070328;28;19982;-69
2022/02/01 04:13:59;;;;;;;;;;;;;;;17.63;47.52;100976.13;2071172;28;19920;-68
2022/02/01 04:14:59;;;;;;;;;;;;;;;17.63;47.42;100984.31;2066386;28;19921;-69
2022/02/01 04:15:59;;;;;;;;;;;;;;;17.63;47.33;100989.75;2065363;28;19976;-69
2022/02/01 04:17:01;;;;;;;;;;;;;;;17.62;47.43;100982.56;2067201;28;19925;-69
2022/02/01 04:18:02;;;;;;;;;;;;;;;17.62;47.67;100988.03;2065791;28;19925;-69
2022/02/01 04:19:04;;;;;;;;;;;;;;;17.61;47.42;100999.91;2065820;28;19975;-68
2022/02/01 04:20:05;;;;;;;;;;;;;;;17.60;47.57;100996.31;2066982;28;19921;-68
2022/02/01 04:21:06;;;;;;;;;;;;;;;17.60;47.65;101011.81;2067894;28;20439;-68
2022/02/01 04:22:06;;;;;;;;;;;;;;;17.59;47.46;101010.94;2065663;28;19917;-68
2022/02/01 04:23:07;;;;;;;;;;;;;;;17.58;47.33;101012.78;2061809;28;20956;-68
2022/02/01 04:24:07;;;;;;;;;;;;;;;17.57;47.54;101008.31;2063696;28;19925;-68
2022/02/01 04:25:08;;;;;;;;;;;;;;;17.58;47.39;101015.50;2067525;28;19978;-71
2022/02/01 04:26:08;;;;;;;;;;;;;;;17.58;47.41;101014.66;2067478;28;20007;-69
2022/02/01 04:27:16;;;;;;;;;;;;;;;17.57;47.61;101016.50;2069571;28;20002;-68
2022/02/01 04:28:16;;;;;;;;;;;;;;;17.57;47.42;101016.50;2068398;28;19945;-68
2022/02/01 04:29:17;;;;;;;;;;;;;;;17.57;47.36;101019.22;2066930;28;19924;-68
2022/02/01 04:30:18;;;;;;;;;;;;;;;17.58;47.63;101026.41;2062996;28;19979;-68
2022/02/01 04:31:18;;;;;;;;;;;;;;;17.58;47.37;101026.41;2068865;28;19913;-68
2022/02/01 04:32:18;;;;;;;;;;;;;;;17.58;47.45;101031.00;2067285;28;19920;-68
2022/02/01 04:33:19;;;;;;;;;;;;;;;17.56;47.57;101027.50;2065114;28;19979;-68
2022/02/01 04:34:19;;;;;;;;;;;;;;;17.57;47.37;101023.81;2068588;28;20615;-68
2022/02/01 04:35:24;;;;;;;;;;;;;;;17.56;47.44;101022.97;2067367;28;20462;-68
2022/02/01 04:36:24;;;;;;;;;;;;;;;17.55;47.67;101023.94;2067124;28;20376;-69
2022/02/01 04:37:27;;;;;;;;;;;;;;;17.56;47.32;101022.06;2064911;28;20189;-69
2022/02/01 04:38:28;;;;;;;;;;;;;;;17.55;47.55;101026.66;2066366;28;19920;-68
2022/02/01 04:39:28;;;;;;;;;;;;;;;17.55;47.31;101015.75;2069184;28;19924;-68
2022/02/01 04:40:29;;;;;;;;;;;;;;;17.55;47.36;101020.34;2065789;28;19917;-68
2022/02/01 04:41:29;;;;;;;;;;;;;;;17.55;47.43;101021.19;2068773;28;19961;-68
2022/02/01 04:42:34;;;;;;;;;;;;;;;17.56;47.31;101016.63;2068646;28;20359;-68
2022/02/01 04:43:36;;;;;;;;;;;;;;;17.57;47.17;101023.81;2063707;28;20238;-68
2022/02/01 04:44:36;;;;;;;;;;;;;;;17.56;47.30;101017.50;2067743;28;19917;-68
2022/02/01 04:45:37;;;;;;;;;;;;;;;17.57;47.39;101021.97;2068258;28;19956;-68
2022/02/01 04:46:37;;;;;;;;;;;;;;;17.57;47.21;101030.13;2065650;28;20747;-68
2022/02/01 04:47:37;;;;;;;;;;;;;;;17.58;47.26;101031.00;2064543;28;19921;-69
2022/02/01 04:48:38;;;;;;;;;;;;;;;17.57;47.47;101035.59;2064759;28;19917;-69
2022/02/01 04:49:38;;;;;;;;;;;;;;;17.56;47.38;101039.31;2066456;28;20708;-68
2022/02/01 04:50:39;;;;;;;;;;;;;;;17.56;47.52;101052.94;2067358;28;20766;-69
2022/02/01 04:51:39;;;;;;;;;;;;;;;17.57;47.38;101046.50;2067543;28;20278;-68
2022/02/01 04:52:41;;;;;;;;;;;;;;;17.57;47.32;101051.94;2067457;28;19943;-69
2022/02/01 04:53:42;;;;;;;;;;;;;;;17.55;47.32;101045.75;2068227;28;20799;-69
2022/02/01 04:54:42;;;;;;;;;;;;;;;17.56;47.44;101049.31;2065480;28;20388;-69
2022/02/01 04:56:00;;;;;;;;;;;;;;;17.54;47.52;101049.47;2068184;28;19979;-69
2022/02/01 04:57:00;;;;;;;;;;;;;;;17.54;47.51;101052.19;2067527;28;20012;-69
2022/02/01 04:58:01;;;;;;;;;;;;;;;17.52;47.27;101040.53;2065868;28;20327;-69
2022/02/01 04:59:01;;;;;;;;;;;;;;;17.53;47.61;101050.44;2068677;28;19951;-69
2022/02/01 05:00:02;;;;;;;;;;;;;;;17.52;47.42;101054.16;2067239;28;19921;-69
2022/02/01 05:01:02;;;;;;;;;;;;;;;17.51;47.55;101055.13;2066075;28;19925;-69
2022/02/01 05:02:03;;;;;;;;;;;;;;;17.51;47.27;101055.13;2067548;28;20784;-68
2022/02/01 05:03:03;;;;;;;;;;;;;;;17.51;47.60;101051.53;2066542;28;20121;-69
2022/02/01 05:04:05;;;;;;;;;;;;;;;17.50;47.47;101056.13;2067859;28;20955;-69
2022/02/01 05:05:05;;;;;;;;;;;;;;;17.49;47.23;101068.03;2065730;28;19944;-69
2022/02/01 05:06:07;;;;;;;;;;;;;;;17.50;47.42;101067.03;2063992;28;19905;-69
2022/02/01 05:07:07;;;;;;;;;;;;;;;17.48;47.21;101058.09;2067914;28;19925;-69
2022/02/01 05:08:09;;;;;;;;;;;;;;;17.49;47.15;101065.31;2066985;28;19917;-69
2022/02/01 05:09:10;;;;;;;;;;;;;;;17.48;47.41;101063.53;2067217;28;19920;-69
2022/02/01 05:10:10;;;;;;;;;;;;;;;17.47;47.37;101072.72;2068641;28;19933;-69
2022/02/01 05:11:11;;;;;;;;;;;;;;;17.47;47.57;101070.00;2067547;28;19983;-69
2022/02/01 05:12:11;;;;;;;;;;;;;;;17.46;47.38;101068.22;2066364;28;19970;-69
2022/02/01 05:14:31;;;;;;;;;;;;;;;17.46;47.35;101076.41;2066140;28;19917;-69
2022/02/01 05:15:32;;;;;;;;;;;;;;;17.45;47.58;101068.38;2066265;28;20372;-69
2022/02/01 05:17:55;;;;;;;;;;;;;;;17.43;47.67;101071.19;2066883;28;20045;-69
2022/02/01 05:19:05;;;;;;;;;;;;;;;17.43;47.78;101078.50;2067255;28;20459;-69
2022/02/01 05:20:24;;;;;;;;;;;;;;;17.43;47.60;101082.09;2066133;28;19917;-70
2022/02/01 05:21:26;;;;;;;;;;;;;;;17.42;47.68;101080.38;2067135;28;20423;-69
2022/02/01 05:22:30;;;;;;;;;;;;;;;17.41;47.70;101085.94;2066621;28;19925;-69
2022/02/01 05:23:31;;;;;;;;;;;;;;;17.41;47.79;101078.63;2066646;28;20019;-69
2022/02/01 05:24:34;;;;;;;;;;;;;;;17.40;47.48;101082.34;2066648;28;20415;-69
2022/02/01 05:25:35;;;;;;;;;;;;;;;17.41;47.62;101088.66;2063381;28;20407;-69
2022/02/01 05:26:35;;;;;;;;;;;;;;;17.39;47.76;101085.16;2068248;28;20370;-69
2022/02/01 05:27:38;;;;;;;;;;;;;;;17.38;47.84;101095.22;2065238;28;19910;-69
2022/02/01 05:28:41;;;;;;;;;;;;;;;17.39;47.80;101096.94;2067666;28;20341;-69
2022/02/01 05:29:42;;;;;;;;;;;;;;;17.39;47.70;101099.66;2066299;28;19914;-69
2022/02/01 05:30:42;;;;;;;;;;;;;;;17.39;47.69;101106.97;2068305;28;20307;-68
2022/02/01 05:31:44;;;;;;;;;;;;;;;17.40;47.63;101104.16;2064868;28;19924;-69
2022/02/01 05:32:44;;;;;;;;;;;;;;;17.39;47.88;101102.38;2066398;28;20665;-70
2022/02/01 05:33:44;;;;;;;;;;;;;;;17.39;47.72;101104.25;2064835;28;20401;-69
2022/02/01 05:34:45;;;;;;;;;;;;;;;17.38;47.70;101114.28;2064395;28;19924;-68
2022/02/01 05:35:45;;;;;;;;;;;;;;;17.39;47.79;101113.28;2067675;28;19917;-67
2022/02/01 05:36:45;;;;;;;;;;;;;;;17.39;47.83;101116.00;2064282;28;19960;-68
2022/02/01 05:37:46;;;;;;;;;;;;;;;17.38;47.74;101113.44;2060303;28;19918;-68
2022/02/01 05:38:49;;;;;;;;;;;;;;;17.38;47.71;101114.28;2063750;28;19923;-68
2022/02/01 05:39:50;;;;;;;;;;;;;;;17.38;47.71;101113.44;2061245;28;19916;-70
2022/02/01 05:40:50;;;;;;;;;;;;;;;17.36;47.83;101116.25;2067528;28;19960;-68
2022/02/01 05:41:52;;;;;;;;;;;;;;;17.36;47.64;101110.81;2065457;28;20358;-69
2022/02/01 05:43:11;;;;;;;;;;;;;;;17.35;47.56;101111.81;2066488;28;19936;-68
2022/02/01 05:44:12;;;;;;;;;;;;;;;17.36;47.64;101118.97;2064928;28;19921;-69
2022/02/01 05:45:12;;;;;;;;;;;;;;;17.36;47.51;101113.53;2065490;28;19921;-69
2022/02/01 05:46:12;;;;;;;;;;;;;;;17.35;47.38;101117.25;2065132;28;19928;-69
2022/02/01 05:47:14;;;;;;;;;;;;;;;17.34;47.48;101112.75;2067340;28;19921;-69
2022/02/01 05:48:15;;;;;;;;;;;;;;;17.34;47.57;101116.38;2066265;28;19921;-68
2022/02/01 05:49:16;;;;;;;;;;;;;;;17.34;47.75;101120.94;2067376;28;19917;-68
2022/02/01 05:50:16;;;;;;;;;;;;;;;17.32;47.71;101114.72;2067805;28;20415;-68
2022/02/01 05:51:17;;;;;;;;;;;;;;;17.32;47.62;101112.91;2066127;28;20745;-69
2022/02/01 05:52:17;;;;;;;;;;;;;;;17.32;47.49;101112.00;2064944;28;19921;-68
2022/02/01 05:53:18;;;;;;;;;;;;;;;17.31;47.51;101104.81;2065636;28;19913;-68
2022/02/01 05:54:18;;;;;;;;;;;;;;;17.31;47.70;101110.28;2066865;28;19913;-68
2022/02/01 05:55:18;;;;;;;;;;;;;;;17.31;47.75;101113.88;2066062;28;19913;-69
2022/02/01 05:56:19;;;;;;;;;;;;;;;17.29;47.73;101107.66;2066362;28;19956;-68
2022/02/01 05:57:19;;;;;;;;;;;;;;;17.30;47.77;101103.09;2067406;28;20450;-68
2022/02/01 05:58:20;;;;;;;;;;;;;;;17.29;47.75;101106.78;2063982;28;19960;-68
2022/02/01 05:59:20;;;;;;;;;;;;;;;17.29;47.79;101112.25;2065186;28;19931;-68
2022/02/01 06:00:21;;;;;;;;;;;;;;;17.29;47.44;101112.25;2068393;28;19966;-69
2022/02/01 06:01:21;;;;;;;;;;;;;;;17.29;47.70;101112.25;2065174;28;20012;-68
2022/02/01 06:02:21;;;;;;;;;;;;;;;17.29;47.60;101106.78;2068092;28;20492;-69
2022/02/01 06:03:21;;;;;;;;;;;;;;;17.29;47.56;101102.19;2065170;28;20371;-68
2022/02/01 06:04:22;;;;;;;;;;;;;;;17.29;47.56;101106.78;2065848;28;20012;-68
2022/02/01 06:05:22;;;;;;;;;;;;;;;17.29;47.55;101102.19;2068853;28;19925;-68
2022/02/01 06:06:22;;;;;;;;;;;;;;;17.28;47.69;101107.78;2066451;28;19927;-68
2022/02/01 06:07:23;;;;;;;;;;;;;;;17.29;47.69;101101.34;2065983;28;19921;-69
2022/02/01 06:08:23;;;;;;;;;;;;;;;17.29;47.57;101101.34;2065652;28;20216;-69
2022/02/01 06:09:23;;;;;;;;;;;;;;;17.28;47.67;101105.06;2066579;28;19944;-69
2022/02/01 06:10:23;;;;;;;;;;;;;;;17.28;47.60;101105.06;2068176;28;20048;-69
2022/02/01 06:11:24;;;;;;;;;;;;;;;17.29;47.42;101109.50;2066037;28;20296;-68
2022/02/01 06:12:24;;;;;;;;;;;;;;;17.27;47.57;101109.66;2063041;28;19928;-68
2022/02/01 06:13:24;;;;;;;;;;;;;;;17.27;47.50;101114.19;2067774;28;20379;-68
2022/02/01 06:14:25;;;;;;;;;;;;;;;17.28;47.47;101121.41;2064424;28;20168;-68
2022/02/01 06:15:26;;;;;;;;;;;;;;;17.27;47.55;101119.66;2067608;28;19921;-69
2022/02/01 06:16:26;;;;;;;;;;;;;;;17.26;47.47;101123.38;2066242;28;19921;-68
2022/02/01 06:17:27;;;;;;;;;;;;;;;17.26;47.50;101117.94;2066769;28;19948;-68
2022/02/01 06:18:27;;;;;;;;;;;;;;;17.25;47.73;101127.97;2073745;28;20010;-68
2022/02/01 06:19:27;;;;;;;;;;;;;;;17.24;47.71;101131.66;2073436;28;19921;-69
2022/02/01 06:20:27;;;;;;;;;;;;;;;17.25;47.66;101143.44;2068311;28;20103;-69
2022/02/01 06:21:28;;;;;;;;;;;;;;;17.23;47.42;101139.97;2065893;28;19921;-68
2022/02/01 06:22:28;;;;;;;;;;;;;;;17.23;47.72;101137.22;2066699;28;20292;-68
2022/02/01 06:23:29;;;;;;;;;;;;;;;17.23;47.76;101150.84;2067662;28;20503;-68
2022/02/01 06:24:29;;;;;;;;;;;;;;;17.23;47.39;101150.84;2066540;28;19978;-68
2022/02/01 06:26:39;;;;;;;;;;;;;;;17.23;47.56;101167.22;2067300;28;20775;-68
2022/02/01 06:27:40;;;;;;;;;;;;;;;17.23;47.58;101167.22;2066347;28;19979;-69
2022/02/01 06:28:40;;;;;;;;;;;;;;;17.23;47.73;101178.97;2067877;28;20331;-68
2022/02/01 06:29:40;;;;;;;;;;;;;;;17.24;47.42;101186.16;2066288;28;19974;-69
2022/02/01 06:30:41;;;;;;;;;;;;;;;17.24;47.52;101180.69;2066059;28;19970;-69
2022/02/01 06:31:41;;;;;;;;;;;;;;;17.25;47.43;101190.63;2065309;28;19929;-68
2022/02/01 06:32:42;;;;;;;;;;;;;;;17.25;47.51;101187.03;2068153;28;20507;-68